sensor_id;sensor_type;location;lat;lon;timestamp;P1;durP1;ratioP1;P2;durP2;ratioP2
6787;SDS011;3431;47.966;10.268;2024-03-02T00:00:18;2.92;;;2.72;;
6787;SDS011;3431;47.966;10.268;2024-03-02T00:00:41;2.92;;;2.72;;
6787;SDS011;3431;47.966;10.268;2024-03-02T00:01:03;2.90;;;2.70;;
6787;SDS011;3431;47.966;10.268;2024-03-02T00:01:24;3.00;;;2.80;;
6787;SDS011;3431;47.966;10.268;2024-03-02T00:01:46;3.58;;;3.28;;
6787;SDS011;3431;47.966;10.268;2024-03-02T00:02:08;3.17;;;2.97;;
6787;SDS011;3431;47.966;10.268;2024-03-02T00:02:30;3.00;;;2.80;;
6787;SDS011;3431;47.966;10.268;2024-03-02T00:02:52;3.20;;;3.00;;
6787;SDS011;3431;47.966;10.268;2024-03-02T00:03:13;3.20;;;2.90;;
6787;SDS011;3431;47.966;10.268;2024-03-02T00:03:36;2.88;;;2.67;;
6787;SDS011;3431;47.966;10.268;2024-03-02T00:03:57;2.72;;;2.53;;
6787;SDS011;3431;47.966;10.268;2024-03-02T00:04:20;2.80;;;2.60;;
6787;SDS011;3431;47.966;10.268;2024-03-02T00:04:43;3.10;;;2.80;;
6787;SDS011;3431;47.966;10.268;2024-03-02T00:05:05;3.40;;;3.10;;
6787;SDS011;3431;47.966;10.268;2024-03-02T00:05:27;3.30;;;3.08;;
6787;SDS011;3431;47.966;10.268;2024-03-02T00:05:50;3.08;;;2.88;;
6787;SDS011;3431;47.966;10.268;2024-03-02T00:06:13;3.28;;;3.03;;
6787;SDS011;3431;47.966;10.268;2024-03-02T00:06:34;3.00;;;2.70;;
6787;SDS011;3431;47.966;10.268;2024-03-02T00:06:56;3.30;;;3.00;;
6787;SDS011;3431;47.966;10.268;2024-03-02T00:07:19;3.05;;;2.85;;
6787;SDS011;3431;47.966;10.268;2024-03-02T00:07:41;3.08;;;2.88;;
6787;SDS011;3431;47.966;10.268;2024-03-02T00:08:04;3.03;;;2.83;;
6787;SDS011;3431;47.966;10.268;2024-03-02T00:08:27;3.00;;;2.80;;
6787;SDS011;3431;47.966;10.268;2024-03-02T00:08:50;3.13;;;2.90;;
6787;SDS011;3431;47.966;10.268;2024-03-02T00:09:13;3.50;;;3.20;;
6787;SDS011;3431;47.966;10.268;2024-03-02T00:09:37;3.40;;;3.10;;
6787;SDS011;3431;47.966;10.268;2024-03-02T00:10:00;3.10;;;2.90;;
6787;SDS011;3431;47.966;10.268;2024-03-02T00:10:25;3.25;;;2.95;;
6787;SDS011;3431;47.966;10.268;2024-03-02T00:10:50;3.20;;;3.00;;
6787;SDS011;3431;47.966;10.268;2024-03-02T00:11:11;3.25;;;2.95;;
6787;SDS011;3431;47.966;10.268;2024-03-02T00:11:35;3.20;;;2.90;;
6787;SDS011;3431;47.966;10.268;2024-03-02T00:11:57;2.92;;;2.72;;
6787;SDS011;3431;47.966;10.268;2024-03-02T00:12:20;3.00;;;2.80;;
6787;SDS011;3431;47.966;10.268;2024-03-02T00:12:42;2.95;;;2.75;;
6787;SDS011;3431;47.966;10.268;2024-03-02T00:13:03;2.93;;;2.70;;
6787;SDS011;3431;47.966;10.268;2024-03-02T00:13:25;2.80;;;2.60;;
6787;SDS011;3431;47.966;10.268;2024-03-02T00:13:47;3.00;;;2.70;;
6787;SDS011;3431;47.966;10.268;2024-03-02T00:14:10;2.80;;;2.60;;
6787;SDS011;3431;47.966;10.268;2024-03-02T00:14:32;2.88;;;2.67;;
6787;SDS011;3431;47.966;10.268;2024-03-02T00:14:58;2.60;;;2.40;;
6787;SDS011;3431;47.966;10.268;2024-03-02T00:15:30;2.72;;;2.53;;
6787;SDS011;3431;47.966;10.268;2024-03-02T00:16:07;2.72;;;2.53;;
6787;SDS011;3431;47.966;10.268;2024-03-02T00:16:30;2.70;;;2.50;;
6787;SDS011;3431;47.966;10.268;2024-03-02T00:16:52;2.70;;;2.50;;
6787;SDS011;3431;47.966;10.268;2024-03-02T00:17:17;2.60;;;2.40;;
6787;SDS011;3431;47.966;10.268;2024-03-02T00:17:46;2.60;;;2.40;;
6787;SDS011;3431;47.966;10.268;2024-03-02T00:18:14;2.22;;;2.13;;
6787;SDS011;3431;47.966;10.268;2024-03-02T00:18:40;2.58;;;2.38;;
6787;SDS011;3431;47.966;10.268;2024-03-02T00:19:02;2.70;;;2.50;;
6787;SDS011;3431;47.966;10.268;2024-03-02T00:19:23;2.70;;;2.50;;
6787;SDS011;3431;47.966;10.268;2024-03-02T00:19:45;2.80;;;2.60;;
6787;SDS011;3431;47.966;10.268;2024-03-02T00:20:08;2.70;;;2.50;;
6787;SDS011;3431;47.966;10.268;2024-03-02T00:20:31;2.53;;;2.33;;
6787;SDS011;3431;47.966;10.268;2024-03-02T00:20:53;2.70;;;2.50;;
6787;SDS011;3431;47.966;10.268;2024-03-02T00:21:16;2.77;;;2.57;;
6787;SDS011;3431;47.966;10.268;2024-03-02T00:21:41;2.35;;;2.25;;
6787;SDS011;3431;47.966;10.268;2024-03-02T00:22:03;2.60;;;2.40;;
6787;SDS011;3431;47.966;10.268;2024-03-02T00:22:26;2.60;;;2.40;;
6787;SDS011;3431;47.966;10.268;2024-03-02T00:22:50;2.70;;;2.50;;
6787;SDS011;3431;47.966;10.268;2024-03-02T00:23:13;2.78;;;2.58;;
6787;SDS011;3431;47.966;10.268;2024-03-02T00:23:36;2.50;;;2.30;;
6787;SDS011;3431;47.966;10.268;2024-03-02T00:23:59;2.60;;;2.40;;
6787;SDS011;3431;47.966;10.268;2024-03-02T00:24:26;2.80;;;2.60;;
6787;SDS011;3431;47.966;10.268;2024-03-02T00:24:53;2.70;;;2.50;;
6787;SDS011;3431;47.966;10.268;2024-03-02T00:25:15;2.70;;;2.50;;
6787;SDS011;3431;47.966;10.268;2024-03-02T00:25:37;2.70;;;2.50;;
6787;SDS011;3431;47.966;10.268;2024-03-02T00:26:01;2.75;;;2.55;;
6787;SDS011;3431;47.966;10.268;2024-03-02T00:26:24;2.60;;;2.40;;
6787;SDS011;3431;47.966;10.268;2024-03-02T00:26:46;2.70;;;2.50;;
6787;SDS011;3431;47.966;10.268;2024-03-02T00:27:08;2.80;;;2.60;;
6787;SDS011;3431;47.966;10.268;2024-03-02T00:27:35;2.60;;;2.40;;
6787;SDS011;3431;47.966;10.268;2024-03-02T00:27:57;2.70;;;2.50;;
6787;SDS011;3431;47.966;10.268;2024-03-02T00:28:19;2.70;;;2.50;;
6787;SDS011;3431;47.966;10.268;2024-03-02T00:28:42;2.78;;;2.58;;
6787;SDS011;3431;47.966;10.268;2024-03-02T00:29:05;2.83;;;2.63;;
6787;SDS011;3431;47.966;10.268;2024-03-02T00:29:27;2.72;;;2.53;;
6787;SDS011;3431;47.966;10.268;2024-03-02T00:29:50;2.63;;;2.42;;
6787;SDS011;3431;47.966;10.268;2024-03-02T00:30:13;2.42;;;2.22;;
6787;SDS011;3431;47.966;10.268;2024-03-02T00:31:07;2.85;;;2.65;;
6787;SDS011;3431;47.966;10.268;2024-03-02T00:31:32;2.65;;;2.45;;
6787;SDS011;3431;47.966;10.268;2024-03-02T00:31:54;2.60;;;2.40;;
6787;SDS011;3431;47.966;10.268;2024-03-02T00:32:16;2.80;;;2.60;;
6787;SDS011;3431;47.966;10.268;2024-03-02T00:32:38;2.60;;;2.40;;
6787;SDS011;3431;47.966;10.268;2024-03-02T00:32:59;2.70;;;2.50;;
6787;SDS011;3431;47.966;10.268;2024-03-02T00:33:21;2.80;;;2.60;;
6787;SDS011;3431;47.966;10.268;2024-03-02T00:33:44;2.60;;;2.40;;
6787;SDS011;3431;47.966;10.268;2024-03-02T00:34:07;2.90;;;2.50;;
6787;SDS011;3431;47.966;10.268;2024-03-02T00:34:29;2.88;;;2.67;;
6787;SDS011;3431;47.966;10.268;2024-03-02T00:34:50;2.75;;;2.55;;
6787;SDS011;3431;47.966;10.268;2024-03-02T00:35:12;2.80;;;2.60;;
6787;SDS011;3431;47.966;10.268;2024-03-02T00:35:34;2.78;;;2.58;;
6787;SDS011;3431;47.966;10.268;2024-03-02T00:35:55;2.83;;;2.63;;
6787;SDS011;3431;47.966;10.268;2024-03-02T00:36:21;2.93;;;2.73;;
6787;SDS011;3431;47.966;10.268;2024-03-02T00:36:46;3.05;;;2.85;;
6787;SDS011;3431;47.966;10.268;2024-03-02T00:37:08;2.70;;;2.50;;
6787;SDS011;3431;47.966;10.268;2024-03-02T00:37:33;2.60;;;2.40;;
6787;SDS011;3431;47.966;10.268;2024-03-02T00:37:55;2.55;;;2.35;;
6787;SDS011;3431;47.966;10.268;2024-03-02T00:38:17;2.83;;;2.63;;
6787;SDS011;3431;47.966;10.268;2024-03-02T00:38:44;2.80;;;2.53;;
6787;SDS011;3431;47.966;10.268;2024-03-02T00:39:08;2.63;;;2.42;;
6787;SDS011;3431;47.966;10.268;2024-03-02T00:39:34;2.83;;;2.63;;
6787;SDS011;3431;47.966;10.268;2024-03-02T00:39:56;2.77;;;2.57;;
6787;SDS011;3431;47.966;10.268;2024-03-02T00:40:18;2.55;;;2.35;;
6787;SDS011;3431;47.966;10.268;2024-03-02T00:40:40;2.70;;;2.50;;
6787;SDS011;3431;47.966;10.268;2024-03-02T00:41:04;2.70;;;2.50;;
6787;SDS011;3431;47.966;10.268;2024-03-02T00:41:29;3.20;;;2.50;;
6787;SDS011;3431;47.966;10.268;2024-03-02T00:41:51;2.47;;;2.28;;
6787;SDS011;3431;47.966;10.268;2024-03-02T00:42:12;2.67;;;2.47;;
6787;SDS011;3431;47.966;10.268;2024-03-02T00:42:34;2.67;;;2.47;;
6787;SDS011;3431;47.966;10.268;2024-03-02T00:42:55;2.70;;;2.50;;
6787;SDS011;3431;47.966;10.268;2024-03-02T00:44:09;2.55;;;2.40;;
6787;SDS011;3431;47.966;10.268;2024-03-02T00:44:32;2.90;;;2.70;;
6787;SDS011;3431;47.966;10.268;2024-03-02T00:44:56;3.00;;;2.80;;
6787;SDS011;3431;47.966;10.268;2024-03-02T00:45:18;3.53;;;3.03;;
6787;SDS011;3431;47.966;10.268;2024-03-02T00:45:39;3.25;;;2.95;;
6787;SDS011;3431;47.966;10.268;2024-03-02T00:46:01;2.80;;;2.60;;
6787;SDS011;3431;47.966;10.268;2024-03-02T00:46:24;2.63;;;2.42;;
6787;SDS011;3431;47.966;10.268;2024-03-02T00:46:48;2.75;;;2.55;;
6787;SDS011;3431;47.966;10.268;2024-03-02T00:47:09;2.60;;;2.40;;
6787;SDS011;3431;47.966;10.268;2024-03-02T00:47:32;2.80;;;2.60;;
6787;SDS011;3431;47.966;10.268;2024-03-02T00:47:58;2.78;;;2.58;;
6787;SDS011;3431;47.966;10.268;2024-03-02T00:48:19;2.60;;;2.40;;
6787;SDS011;3431;47.966;10.268;2024-03-02T00:48:46;2.60;;;2.40;;
6787;SDS011;3431;47.966;10.268;2024-03-02T00:49:12;2.42;;;2.22;;
6787;SDS011;3431;47.966;10.268;2024-03-02T00:49:41;2.80;;;2.60;;
6787;SDS011;3431;47.966;10.268;2024-03-02T00:50:03;2.83;;;2.63;;
6787;SDS011;3431;47.966;10.268;2024-03-02T00:50:26;2.65;;;2.45;;
6787;SDS011;3431;47.966;10.268;2024-03-02T00:50:49;2.40;;;2.30;;
6787;SDS011;3431;47.966;10.268;2024-03-02T00:51:12;2.60;;;2.40;;
6787;SDS011;3431;47.966;10.268;2024-03-02T00:51:34;2.42;;;2.22;;
6787;SDS011;3431;47.966;10.268;2024-03-02T00:51:56;2.38;;;2.17;;
6787;SDS011;3431;47.966;10.268;2024-03-02T00:52:18;2.40;;;2.20;;
6787;SDS011;3431;47.966;10.268;2024-03-02T00:52:41;2.53;;;2.30;;
6787;SDS011;3431;47.966;10.268;2024-03-02T00:53:03;2.70;;;2.50;;
6787;SDS011;3431;47.966;10.268;2024-03-02T00:53:25;2.30;;;2.20;;
6787;SDS011;3431;47.966;10.268;2024-03-02T00:53:47;2.60;;;2.40;;
6787;SDS011;3431;47.966;10.268;2024-03-02T00:54:09;3.78;;;2.47;;
6787;SDS011;3431;47.966;10.268;2024-03-02T00:54:32;2.60;;;2.40;;
6787;SDS011;3431;47.966;10.268;2024-03-02T00:54:55;2.60;;;2.40;;
6787;SDS011;3431;47.966;10.268;2024-03-02T00:55:18;2.65;;;2.45;;
6787;SDS011;3431;47.966;10.268;2024-03-02T00:55:40;2.55;;;2.35;;
6787;SDS011;3431;47.966;10.268;2024-03-02T00:56:05;2.45;;;2.30;;
6787;SDS011;3431;47.966;10.268;2024-03-02T00:56:32;2.78;;;2.58;;
6787;SDS011;3431;47.966;10.268;2024-03-02T00:56:55;2.47;;;2.28;;
6787;SDS011;3431;47.966;10.268;2024-03-02T00:57:17;2.45;;;2.25;;
6787;SDS011;3431;47.966;10.268;2024-03-02T00:57:39;2.80;;;2.50;;
6787;SDS011;3431;47.966;10.268;2024-03-02T00:58:01;2.40;;;2.30;;
6787;SDS011;3431;47.966;10.268;2024-03-02T00:58:22;2.60;;;2.40;;
6787;SDS011;3431;47.966;10.268;2024-03-02T00:58:45;2.70;;;2.50;;
6787;SDS011;3431;47.966;10.268;2024-03-02T00:59:08;2.53;;;2.33;;
6787;SDS011;3431;47.966;10.268;2024-03-02T00:59:31;2.35;;;2.15;;
6787;SDS011;3431;47.966;10.268;2024-03-02T00:59:52;2.45;;;2.25;;
6787;SDS011;3431;47.966;10.268;2024-03-02T01:00:14;2.38;;;2.17;;
6787;SDS011;3431;47.966;10.268;2024-03-02T01:00:38;2.60;;;2.40;;
6787;SDS011;3431;47.966;10.268;2024-03-02T01:00:59;2.28;;;2.17;;
6787;SDS011;3431;47.966;10.268;2024-03-02T01:01:21;2.13;;;2.03;;
6787;SDS011;3431;47.966;10.268;2024-03-02T01:01:44;2.85;;;2.40;;
6787;SDS011;3431;47.966;10.268;2024-03-02T01:02:06;2.85;;;2.65;;
6787;SDS011;3431;47.966;10.268;2024-03-02T01:02:27;2.65;;;2.45;;
6787;SDS011;3431;47.966;10.268;2024-03-02T01:02:50;2.60;;;2.40;;
6787;SDS011;3431;47.966;10.268;2024-03-02T01:03:12;2.38;;;2.25;;
6787;SDS011;3431;47.966;10.268;2024-03-02T01:03:33;2.83;;;2.63;;
6787;SDS011;3431;47.966;10.268;2024-03-02T01:03:56;2.60;;;2.40;;
6787;SDS011;3431;47.966;10.268;2024-03-02T01:04:17;2.15;;;2.05;;
6787;SDS011;3431;47.966;10.268;2024-03-02T01:04:39;2.40;;;2.20;;
6787;SDS011;3431;47.966;10.268;2024-03-02T01:05:00;2.28;;;2.13;;
6787;SDS011;3431;47.966;10.268;2024-03-02T01:05:22;2.22;;;2.13;;
6787;SDS011;3431;47.966;10.268;2024-03-02T01:05:43;2.35;;;2.25;;
6787;SDS011;3431;47.966;10.268;2024-03-02T01:06:05;2.40;;;2.20;;
6787;SDS011;3431;47.966;10.268;2024-03-02T01:06:29;2.35;;;2.15;;
6787;SDS011;3431;47.966;10.268;2024-03-02T01:06:51;2.57;;;2.37;;
6787;SDS011;3431;47.966;10.268;2024-03-02T01:07:12;2.40;;;2.20;;
6787;SDS011;3431;47.966;10.268;2024-03-02T01:07:34;2.47;;;2.28;;
6787;SDS011;3431;47.966;10.268;2024-03-02T01:07:56;2.50;;;2.30;;
6787;SDS011;3431;47.966;10.268;2024-03-02T01:08:18;2.50;;;2.30;;
6787;SDS011;3431;47.966;10.268;2024-03-02T01:08:40;2.65;;;2.45;;
6787;SDS011;3431;47.966;10.268;2024-03-02T01:09:02;2.28;;;2.15;;
6787;SDS011;3431;47.966;10.268;2024-03-02T01:09:24;2.58;;;2.38;;
6787;SDS011;3431;47.966;10.268;2024-03-02T01:09:46;2.40;;;2.20;;
6787;SDS011;3431;47.966;10.268;2024-03-02T01:10:08;2.33;;;2.17;;
6787;SDS011;3431;47.966;10.268;2024-03-02T01:10:31;2.38;;;2.17;;
6787;SDS011;3431;47.966;10.268;2024-03-02T01:10:53;2.50;;;2.30;;
6787;SDS011;3431;47.966;10.268;2024-03-02T01:11:15;2.47;;;2.28;;
6787;SDS011;3431;47.966;10.268;2024-03-02T01:11:37;2.28;;;2.17;;
6787;SDS011;3431;47.966;10.268;2024-03-02T01:11:58;2.20;;;2.10;;
6787;SDS011;3431;47.966;10.268;2024-03-02T01:12:21;2.50;;;2.30;;
6787;SDS011;3431;47.966;10.268;2024-03-02T01:12:42;2.47;;;2.28;;
6787;SDS011;3431;47.966;10.268;2024-03-02T01:13:04;2.70;;;2.50;;
6787;SDS011;3431;47.966;10.268;2024-03-02T01:13:25;2.58;;;2.38;;
6787;SDS011;3431;47.966;10.268;2024-03-02T01:13:47;2.30;;;2.20;;
6787;SDS011;3431;47.966;10.268;2024-03-02T01:14:10;2.30;;;2.20;;
6787;SDS011;3431;47.966;10.268;2024-03-02T01:14:31;2.40;;;2.20;;
6787;SDS011;3431;47.966;10.268;2024-03-02T01:14:53;2.13;;;2.03;;
6787;SDS011;3431;47.966;10.268;2024-03-02T01:15:14;2.10;;;2.00;;
6787;SDS011;3431;47.966;10.268;2024-03-02T01:15:36;2.47;;;2.28;;
6787;SDS011;3431;47.966;10.268;2024-03-02T01:15:58;2.47;;;2.28;;
6787;SDS011;3431;47.966;10.268;2024-03-02T01:16:20;2.15;;;2.03;;
6787;SDS011;3431;47.966;10.268;2024-03-02T01:16:42;2.33;;;2.13;;
6787;SDS011;3431;47.966;10.268;2024-03-02T01:17:04;2.45;;;2.25;;
6787;SDS011;3431;47.966;10.268;2024-03-02T01:17:25;2.42;;;2.22;;
6787;SDS011;3431;47.966;10.268;2024-03-02T01:17:47;2.33;;;2.22;;
6787;SDS011;3431;47.966;10.268;2024-03-02T01:18:08;2.28;;;2.17;;
6787;SDS011;3431;47.966;10.268;2024-03-02T01:18:31;2.47;;;2.33;;
6787;SDS011;3431;47.966;10.268;2024-03-02T01:18:52;2.53;;;2.33;;
6787;SDS011;3431;47.966;10.268;2024-03-02T01:19:14;2.15;;;2.05;;
6787;SDS011;3431;47.966;10.268;2024-03-02T01:19:36;2.03;;;1.92;;
6787;SDS011;3431;47.966;10.268;2024-03-02T01:19:59;2.20;;;2.10;;
6787;SDS011;3431;47.966;10.268;2024-03-02T01:20:20;4.30;;;2.30;;
6787;SDS011;3431;47.966;10.268;2024-03-02T01:20:42;2.15;;;2.03;;
6787;SDS011;3431;47.966;10.268;2024-03-02T01:21:04;2.20;;;2.00;;
6787;SDS011;3431;47.966;10.268;2024-03-02T01:21:25;2.10;;;2.00;;
6787;SDS011;3431;47.966;10.268;2024-03-02T01:21:48;2.50;;;2.30;;
6787;SDS011;3431;47.966;10.268;2024-03-02T01:22:11;2.20;;;2.10;;
6787;SDS011;3431;47.966;10.268;2024-03-02T01:22:33;2.35;;;2.22;;
6787;SDS011;3431;47.966;10.268;2024-03-02T01:22:56;2.20;;;2.10;;
6787;SDS011;3431;47.966;10.268;2024-03-02T01:23:18;2.50;;;2.30;;
6787;SDS011;3431;47.966;10.268;2024-03-02T01:23:40;2.40;;;2.20;;
6787;SDS011;3431;47.966;10.268;2024-03-02T01:24:03;2.50;;;2.30;;
6787;SDS011;3431;47.966;10.268;2024-03-02T01:24:25;2.28;;;2.17;;
6787;SDS011;3431;47.966;10.268;2024-03-02T01:24:46;2.20;;;2.10;;
6787;SDS011;3431;47.966;10.268;2024-03-02T01:25:08;2.20;;;2.10;;
6787;SDS011;3431;47.966;10.268;2024-03-02T01:25:29;2.20;;;2.10;;
6787;SDS011;3431;47.966;10.268;2024-03-02T01:25:51;2.37;;;2.23;;
6787;SDS011;3431;47.966;10.268;2024-03-02T01:26:14;2.47;;;2.27;;
6787;SDS011;3431;47.966;10.268;2024-03-02T01:26:36;2.50;;;2.30;;
6787;SDS011;3431;47.966;10.268;2024-03-02T01:26:58;2.60;;;2.40;;
6787;SDS011;3431;47.966;10.268;2024-03-02T01:27:19;2.17;;;2.08;;
6787;SDS011;3431;47.966;10.268;2024-03-02T01:27:41;2.30;;;2.20;;
6787;SDS011;3431;47.966;10.268;2024-03-02T01:28:02;2.30;;;2.20;;
6787;SDS011;3431;47.966;10.268;2024-03-02T01:28:25;2.30;;;2.20;;
6787;SDS011;3431;47.966;10.268;2024-03-02T01:28:47;2.30;;;2.05;;
6787;SDS011;3431;47.966;10.268;2024-03-02T01:29:08;2.25;;;2.13;;
6787;SDS011;3431;47.966;10.268;2024-03-02T01:29:30;2.40;;;2.20;;
6787;SDS011;3431;47.966;10.268;2024-03-02T01:29:51;2.30;;;2.20;;
6787;SDS011;3431;47.966;10.268;2024-03-02T01:30:15;2.15;;;2.05;;
6787;SDS011;3431;47.966;10.268;2024-03-02T01:30:37;2.00;;;1.90;;
6787;SDS011;3431;47.966;10.268;2024-03-02T01:30:58;2.45;;;2.25;;
6787;SDS011;3431;47.966;10.268;2024-03-02T01:31:20;2.22;;;2.03;;
6787;SDS011;3431;47.966;10.268;2024-03-02T01:31:41;2.17;;;2.08;;
6787;SDS011;3431;47.966;10.268;2024-03-02T01:32:04;2.22;;;2.13;;
6787;SDS011;3431;47.966;10.268;2024-03-02T01:32:26;2.10;;;2.00;;
6787;SDS011;3431;47.966;10.268;2024-03-02T01:32:47;2.10;;;2.00;;
6787;SDS011;3431;47.966;10.268;2024-03-02T01:33:09;1.98;;;1.88;;
6787;SDS011;3431;47.966;10.268;2024-03-02T01:33:30;2.30;;;2.20;;
6787;SDS011;3431;47.966;10.268;2024-03-02T01:33:52;2.33;;;2.22;;
6787;SDS011;3431;47.966;10.268;2024-03-02T01:34:15;2.50;;;2.30;;
6787;SDS011;3431;47.966;10.268;2024-03-02T01:34:36;2.35;;;2.15;;
6787;SDS011;3431;47.966;10.268;2024-03-02T01:34:58;2.20;;;2.10;;
6787;SDS011;3431;47.966;10.268;2024-03-02T01:35:19;2.00;;;1.90;;
6787;SDS011;3431;47.966;10.268;2024-03-02T01:35:41;2.10;;;2.00;;
6787;SDS011;3431;47.966;10.268;2024-03-02T01:36:02;2.22;;;2.13;;
6787;SDS011;3431;47.966;10.268;2024-03-02T01:36:24;2.40;;;2.25;;
6787;SDS011;3431;47.966;10.268;2024-03-02T01:36:47;2.13;;;2.03;;
6787;SDS011;3431;47.966;10.268;2024-03-02T01:37:08;2.00;;;1.90;;
6787;SDS011;3431;47.966;10.268;2024-03-02T01:37:30;2.20;;;2.10;;
6787;SDS011;3431;47.966;10.268;2024-03-02T01:37:52;2.20;;;2.10;;
6787;SDS011;3431;47.966;10.268;2024-03-02T01:38:15;2.10;;;2.00;;
6787;SDS011;3431;47.966;10.268;2024-03-02T01:38:37;2.50;;;2.30;;
6787;SDS011;3431;47.966;10.268;2024-03-02T01:38:59;2.40;;;2.20;;
6787;SDS011;3431;47.966;10.268;2024-03-02T01:39:21;2.20;;;2.10;;
6787;SDS011;3431;47.966;10.268;2024-03-02T01:39:42;2.22;;;2.13;;
6787;SDS011;3431;47.966;10.268;2024-03-02T01:40:05;2.23;;;2.03;;
6787;SDS011;3431;47.966;10.268;2024-03-02T01:40:29;2.45;;;2.25;;
6787;SDS011;3431;47.966;10.268;2024-03-02T01:40:52;2.20;;;2.08;;
6787;SDS011;3431;47.966;10.268;2024-03-02T01:41:13;2.08;;;1.98;;
6787;SDS011;3431;47.966;10.268;2024-03-02T01:41:35;2.30;;;2.10;;
6787;SDS011;3431;47.966;10.268;2024-03-02T01:41:57;2.30;;;2.10;;
6787;SDS011;3431;47.966;10.268;2024-03-02T01:42:18;2.10;;;2.00;;
6787;SDS011;3431;47.966;10.268;2024-03-02T01:42:40;2.20;;;2.10;;
6787;SDS011;3431;47.966;10.268;2024-03-02T01:43:03;2.17;;;2.08;;
6787;SDS011;3431;47.966;10.268;2024-03-02T01:43:25;2.50;;;2.30;;
6787;SDS011;3431;47.966;10.268;2024-03-02T01:43:46;2.42;;;2.25;;
6787;SDS011;3431;47.966;10.268;2024-03-02T01:44:08;2.28;;;2.17;;
6787;SDS011;3431;47.966;10.268;2024-03-02T01:44:29;2.20;;;2.10;;
6787;SDS011;3431;47.966;10.268;2024-03-02T01:44:52;2.33;;;2.17;;
6787;SDS011;3431;47.966;10.268;2024-03-02T01:45:13;2.10;;;2.00;;
6787;SDS011;3431;47.966;10.268;2024-03-02T01:45:35;2.40;;;2.20;;
6787;SDS011;3431;47.966;10.268;2024-03-02T01:45:58;2.20;;;2.10;;
6787;SDS011;3431;47.966;10.268;2024-03-02T01:46:20;2.17;;;2.08;;
6787;SDS011;3431;47.966;10.268;2024-03-02T01:46:42;2.00;;;1.90;;
6787;SDS011;3431;47.966;10.268;2024-03-02T01:47:03;2.28;;;2.17;;
6787;SDS011;3431;47.966;10.268;2024-03-02T01:47:25;2.30;;;2.20;;
6787;SDS011;3431;47.966;10.268;2024-03-02T01:47:46;2.20;;;2.10;;
6787;SDS011;3431;47.966;10.268;2024-03-02T01:48:08;2.35;;;2.03;;
6787;SDS011;3431;47.966;10.268;2024-03-02T01:48:30;2.20;;;2.10;;
6787;SDS011;3431;47.966;10.268;2024-03-02T01:48:52;2.05;;;1.95;;
6787;SDS011;3431;47.966;10.268;2024-03-02T01:49:13;2.50;;;2.30;;
6787;SDS011;3431;47.966;10.268;2024-03-02T01:49:35;2.38;;;2.28;;
6787;SDS011;3431;47.966;10.268;2024-03-02T01:49:56;2.10;;;2.00;;
6787;SDS011;3431;47.966;10.268;2024-03-02T01:50:24;2.13;;;2.03;;
6787;SDS011;3431;47.966;10.268;2024-03-02T01:50:46;2.40;;;2.20;;
6787;SDS011;3431;47.966;10.268;2024-03-02T01:51:08;2.35;;;2.15;;
6787;SDS011;3431;47.966;10.268;2024-03-02T01:51:31;1.90;;;1.80;;
6787;SDS011;3431;47.966;10.268;2024-03-02T01:51:53;2.15;;;2.05;;
6787;SDS011;3431;47.966;10.268;2024-03-02T01:52:14;2.30;;;2.20;;
6787;SDS011;3431;47.966;10.268;2024-03-02T01:52:36;2.00;;;1.90;;
6787;SDS011;3431;47.966;10.268;2024-03-02T01:52:58;1.98;;;1.88;;
6787;SDS011;3431;47.966;10.268;2024-03-02T01:53:21;2.10;;;1.90;;
6787;SDS011;3431;47.966;10.268;2024-03-02T01:53:44;2.30;;;2.10;;
6787;SDS011;3431;47.966;10.268;2024-03-02T01:54:05;2.33;;;2.20;;
6787;SDS011;3431;47.966;10.268;2024-03-02T01:54:27;2.00;;;1.90;;
6787;SDS011;3431;47.966;10.268;2024-03-02T01:54:48;2.10;;;2.00;;
6787;SDS011;3431;47.966;10.268;2024-03-02T01:55:10;2.15;;;1.95;;
6787;SDS011;3431;47.966;10.268;2024-03-02T01:55:33;2.13;;;2.00;;
6787;SDS011;3431;47.966;10.268;2024-03-02T01:55:55;2.10;;;2.00;;
6787;SDS011;3431;47.966;10.268;2024-03-02T01:56:17;2.00;;;1.90;;
6787;SDS011;3431;47.966;10.268;2024-03-02T01:56:38;2.10;;;2.00;;
6787;SDS011;3431;47.966;10.268;2024-03-02T01:57:00;2.10;;;2.00;;
6787;SDS011;3431;47.966;10.268;2024-03-02T01:57:21;2.22;;;2.10;;
6787;SDS011;3431;47.966;10.268;2024-03-02T01:57:44;2.30;;;2.10;;
6787;SDS011;3431;47.966;10.268;2024-03-02T01:58:06;2.38;;;2.17;;
6787;SDS011;3431;47.966;10.268;2024-03-02T01:58:27;2.15;;;2.03;;
6787;SDS011;3431;47.966;10.268;2024-03-02T01:58:49;2.30;;;2.10;;
6787;SDS011;3431;47.966;10.268;2024-03-02T01:59:11;2.20;;;2.00;;
6787;SDS011;3431;47.966;10.268;2024-03-02T01:59:35;2.07;;;1.97;;
6787;SDS011;3431;47.966;10.268;2024-03-02T01:59:56;2.05;;;1.90;;
6787;SDS011;3431;47.966;10.268;2024-03-02T02:00:18;2.22;;;2.00;;
6787;SDS011;3431;47.966;10.268;2024-03-02T02:00:41;2.15;;;2.05;;
6787;SDS011;3431;47.966;10.268;2024-03-02T02:01:02;2.10;;;2.00;;
6787;SDS011;3431;47.966;10.268;2024-03-02T02:01:25;2.03;;;1.92;;
6787;SDS011;3431;47.966;10.268;2024-03-02T02:01:47;1.98;;;1.88;;
6787;SDS011;3431;47.966;10.268;2024-03-02T02:02:09;2.13;;;2.03;;
6787;SDS011;3431;47.966;10.268;2024-03-02T02:02:30;2.45;;;2.30;;
6787;SDS011;3431;47.966;10.268;2024-03-02T02:02:52;2.22;;;2.13;;
6787;SDS011;3431;47.966;10.268;2024-03-02T02:03:14;2.45;;;2.25;;
6787;SDS011;3431;47.966;10.268;2024-03-02T02:03:36;2.33;;;2.22;;
6787;SDS011;3431;47.966;10.268;2024-03-02T02:03:58;2.10;;;2.00;;
6787;SDS011;3431;47.966;10.268;2024-03-02T02:04:20;2.30;;;2.10;;
6787;SDS011;3431;47.966;10.268;2024-03-02T02:04:47;2.22;;;2.03;;
6787;SDS011;3431;47.966;10.268;2024-03-02T02:05:09;2.15;;;2.05;;
6787;SDS011;3431;47.966;10.268;2024-03-02T02:05:30;2.90;;;2.20;;
6787;SDS011;3431;47.966;10.268;2024-03-02T02:05:53;2.20;;;2.10;;
6787;SDS011;3431;47.966;10.268;2024-03-02T02:06:15;2.23;;;2.03;;
6787;SDS011;3431;47.966;10.268;2024-03-02T02:06:36;2.35;;;2.15;;
6787;SDS011;3431;47.966;10.268;2024-03-02T02:06:58;2.20;;;2.00;;
6787;SDS011;3431;47.966;10.268;2024-03-02T02:07:19;2.05;;;1.95;;
6787;SDS011;3431;47.966;10.268;2024-03-02T02:07:41;2.10;;;2.00;;
6787;SDS011;3431;47.966;10.268;2024-03-02T02:08:04;2.20;;;2.10;;
6787;SDS011;3431;47.966;10.268;2024-03-02T02:08:27;2.25;;;2.05;;
6787;SDS011;3431;47.966;10.268;2024-03-02T02:08:49;2.65;;;2.45;;
6787;SDS011;3431;47.966;10.268;2024-03-02T02:09:10;2.38;;;2.17;;
6787;SDS011;3431;47.966;10.268;2024-03-02T02:09:32;1.90;;;1.80;;
6787;SDS011;3431;47.966;10.268;2024-03-02T02:09:54;2.10;;;2.00;;
6787;SDS011;3431;47.966;10.268;2024-03-02T02:10:16;2.40;;;2.20;;
6787;SDS011;3431;47.966;10.268;2024-03-02T02:10:38;2.45;;;2.25;;
6787;SDS011;3431;47.966;10.268;2024-03-02T02:11:00;2.37;;;2.17;;
6787;SDS011;3431;47.966;10.268;2024-03-02T02:11:21;2.28;;;2.08;;
6787;SDS011;3431;47.966;10.268;2024-03-02T02:11:43;1.90;;;1.80;;
6787;SDS011;3431;47.966;10.268;2024-03-02T02:12:05;2.15;;;2.05;;
6787;SDS011;3431;47.966;10.268;2024-03-02T02:12:27;2.17;;;2.08;;
6787;SDS011;3431;47.966;10.268;2024-03-02T02:12:50;2.00;;;1.90;;
6787;SDS011;3431;47.966;10.268;2024-03-02T02:13:11;1.90;;;1.80;;
6787;SDS011;3431;47.966;10.268;2024-03-02T02:13:33;1.92;;;1.83;;
6787;SDS011;3431;47.966;10.268;2024-03-02T02:13:55;1.90;;;1.80;;
6787;SDS011;3431;47.966;10.268;2024-03-02T02:14:17;2.00;;;1.90;;
6787;SDS011;3431;47.966;10.268;2024-03-02T02:14:39;2.20;;;2.00;;
6787;SDS011;3431;47.966;10.268;2024-03-02T02:15:24;1.98;;;1.88;;
6787;SDS011;3431;47.966;10.268;2024-03-02T02:15:47;2.08;;;1.85;;
6787;SDS011;3431;47.966;10.268;2024-03-02T02:16:08;1.80;;;1.70;;
6787;SDS011;3431;47.966;10.268;2024-03-02T02:16:31;1.90;;;1.80;;
6787;SDS011;3431;47.966;10.268;2024-03-02T02:16:52;2.10;;;2.00;;
6787;SDS011;3431;47.966;10.268;2024-03-02T02:17:14;1.95;;;1.85;;
6787;SDS011;3431;47.966;10.268;2024-03-02T02:17:35;1.90;;;1.80;;
6787;SDS011;3431;47.966;10.268;2024-03-02T02:17:58;2.00;;;1.90;;
6787;SDS011;3431;47.966;10.268;2024-03-02T02:18:21;1.90;;;1.80;;
6787;SDS011;3431;47.966;10.268;2024-03-02T02:18:42;2.00;;;1.90;;
6787;SDS011;3431;47.966;10.268;2024-03-02T02:19:04;2.17;;;2.08;;